createdAt,value
2023-05-13T00:04:51.880Z,76.81
2023-05-13T00:09:51.847Z,77.16
2023-05-13T00:14:51.851Z,77.36
2023-05-13T00:19:51.848Z,77.26
2023-05-13T00:24:51.777Z,77.98
2023-05-13T00:29:51.744Z,77.91
2023-05-13T00:34:51.684Z,78.53
2023-05-13T00:39:51.649Z,78.74
2023-05-13T00:44:51.610Z,78.83
2023-05-13T00:49:51.568Z,78.42
2023-05-13T00:54:51.556Z,78.87
2023-05-13T00:59:51.562Z,79.59
2023-05-13T01:04:51.530Z,79.80
2023-05-13T01:09:51.456Z,79.42
2023-05-13T01:14:51.447Z,79.42
2023-05-13T01:19:51.392Z,80.24
2023-05-13T01:24:51.338Z,80.55
2023-05-13T01:29:51.296Z,79.59
2023-05-13T01:34:51.228Z,80.04
2023-05-13T01:39:51.217Z,80.14
2023-05-13T01:44:51.214Z,79.93
2023-05-13T01:49:51.128Z,79.63
2023-05-13T01:54:51.209Z,80.58
2023-05-13T01:59:51.110Z,81.30
2023-05-13T02:04:51.087Z,81.30
2023-05-13T02:09:51.074Z,81.51
2023-05-13T02:14:51.044Z,81.00
2023-05-13T02:19:50.988Z,80.28
2023-05-13T02:24:50.978Z,81.20
2023-05-13T02:29:50.902Z,82.06
2023-05-13T02:34:50.917Z,82.57
2023-05-13T02:39:50.849Z,82.13
2023-05-13T02:44:50.843Z,82.17
2023-05-13T02:49:50.782Z,82.47
2023-05-13T02:54:50.805Z,83.29
2023-05-13T02:59:50.730Z,83.50
2023-05-13T03:04:50.713Z,82.99
2023-05-13T03:09:50.668Z,82.57
2023-05-13T03:14:50.661Z,83.29
2023-05-13T03:19:50.633Z,82.99
2023-05-13T03:24:50.597Z,83.05
2023-05-13T03:29:50.577Z,82.84
2023-05-13T03:34:50.555Z,82.84
2023-05-13T03:39:50.542Z,82.84
2023-05-13T03:44:50.548Z,82.75
2023-05-13T03:49:50.461Z,82.40
2023-05-13T03:54:50.446Z,82.09
2023-05-13T03:59:50.418Z,81.78
2023-05-13T04:04:50.407Z,81.64
2023-05-13T04:09:50.415Z,81.23
2023-05-13T04:14:50.346Z,80.78
2023-05-13T04:19:50.303Z,79.38
2023-05-13T04:24:50.325Z,77.01
2023-05-13T04:29:50.250Z,73.88
2023-05-13T04:34:50.280Z,71.59
2023-05-13T04:39:50.205Z,69.38
2023-05-13T04:44:50.150Z,69.59
2023-05-13T04:49:50.116Z,68.98
2023-05-13T04:54:50.101Z,67.82
2023-05-13T04:59:50.066Z,67.79
2023-05-13T05:04:50.030Z,66.67
2023-05-13T05:09:50.025Z,64.67
2023-05-13T05:14:50.039Z,63.76
2023-05-13T05:19:51.802Z,63.42
2023-05-13T05:24:49.936Z,63.12
2023-05-13T05:29:49.917Z,63.12
2023-05-13T05:34:49.889Z,63.01
2023-05-13T05:39:49.873Z,62.27
2023-05-13T05:44:49.812Z,61.66
2023-05-13T05:49:49.780Z,62.04
2023-05-13T05:54:49.759Z,60.49
2023-05-13T05:59:49.791Z,60.08
2023-05-13T06:04:49.721Z,59.95
2023-05-13T06:09:49.694Z,59.72
2023-05-13T06:14:49.580Z,59.18
2023-05-13T06:19:49.587Z,58.54
2023-05-13T06:24:49.561Z,59.05
2023-05-13T06:29:49.537Z,58.29
2023-05-13T06:34:49.607Z,57.96
2023-05-13T06:39:49.490Z,56.10
2023-05-13T06:44:49.459Z,55.50
2023-05-13T06:49:49.427Z,53.83
2023-05-13T06:54:49.406Z,52.46
2023-05-13T06:59:49.408Z,50.39
2023-05-13T07:04:49.347Z,42.55
2023-05-13T07:09:49.327Z,41.11
2023-05-13T07:14:49.324Z,40.21
2023-05-13T07:19:49.321Z,39.79
2023-05-13T07:24:49.271Z,39.47
2023-05-13T07:29:49.210Z,35.73
2023-05-13T07:34:49.217Z,36.13
2023-05-13T07:39:49.156Z,32.97
2023-05-13T07:44:49.124Z,31.63
2023-05-13T07:49:49.265Z,33.50
2023-05-13T07:54:49.061Z,30.65
2023-05-13T07:59:48.990Z,31.21
2023-05-13T08:04:49.040Z,27.51
2023-05-13T08:09:48.925Z,26.70
2023-05-13T08:14:49.137Z,26.32
2023-05-13T08:19:50.009Z,25.32
2023-05-13T08:24:48.849Z,23.05
2023-05-13T08:29:48.837Z,26.63
2023-05-13T08:34:48.789Z,26.57
2023-05-13T08:39:48.839Z,26.12
2023-05-13T08:44:48.783Z,27.72
2023-05-13T08:49:48.724Z,24.32
2023-05-13T08:54:48.662Z,24.60
2023-05-13T08:59:49.421Z,27.87
2023-05-13T09:04:48.698Z,30.21
2023-05-13T09:09:48.566Z,28.09
2023-05-13T09:14:48.533Z,26.42
2023-05-13T09:19:48.605Z,25.46
2023-05-13T09:24:48.516Z,26.27
2023-05-13T09:29:48.430Z,26.88
2023-05-13T09:34:48.422Z,27.59
2023-05-13T09:39:48.402Z,27.62
2023-05-13T09:44:48.358Z,25.95
2023-05-13T09:49:48.313Z,25.66
2023-05-13T09:54:48.281Z,26.76
2023-05-13T09:59:48.241Z,26.97
2023-05-13T10:04:48.245Z,23.65
2023-05-13T10:09:48.246Z,25.63
2023-05-13T10:14:48.158Z,24.26
2023-05-13T10:19:48.188Z,25.84
2023-05-13T10:24:48.130Z,23.11
2023-05-13T10:29:48.362Z,25.57
2023-05-13T10:34:48.068Z,23.56
2023-05-13T10:39:48.057Z,26.76
2023-05-13T10:44:47.984Z,25.81
2023-05-13T10:49:47.974Z,24.68
2023-05-13T10:54:48.387Z,27.11
2023-05-13T10:59:47.887Z,24.18
2023-05-13T11:04:47.904Z,28.36
2023-05-13T11:09:47.857Z,24.56
2023-05-13T11:14:47.877Z,23.74
2023-05-13T11:19:47.834Z,22.95
2023-05-13T11:24:47.813Z,26.35
2023-05-13T11:29:47.757Z,22.64
2023-05-13T11:34:47.775Z,28.00
2023-05-13T11:39:47.738Z,27.55
2023-05-13T11:44:47.668Z,24.16
2023-05-13T11:49:47.586Z,28.38
2023-05-13T11:54:47.606Z,28.69
2023-05-13T11:59:48.495Z,28.48
2023-05-13T12:04:47.604Z,29.39
2023-05-13T12:09:47.456Z,28.28
2023-05-13T12:14:47.504Z,26.90
2023-05-13T12:19:47.481Z,26.38
2023-05-13T12:24:47.513Z,29.28
2023-05-13T12:29:47.401Z,29.91
2023-05-13T12:34:47.338Z,28.87
2023-05-13T12:39:47.427Z,28.57
2023-05-13T12:44:47.258Z,30.12
2023-05-13T12:49:47.204Z,29.58
2023-05-13T12:54:47.177Z,28.50
2023-05-13T12:59:47.167Z,25.70
2023-05-13T13:04:47.100Z,26.56
2023-05-13T13:09:47.150Z,25.42
2023-05-13T13:14:47.092Z,26.47
2023-05-13T13:19:47.136Z,26.35
2023-05-13T13:24:47.009Z,26.37
2023-05-13T13:29:46.937Z,26.37
2023-05-13T13:34:46.944Z,26.47
2023-05-13T13:39:46.971Z,26.46
2023-05-13T13:44:46.896Z,26.10
2023-05-13T13:49:46.845Z,25.82
2023-05-13T13:54:46.802Z,25.15
2023-05-13T13:59:46.784Z,24.52
2023-05-13T14:04:46.785Z,24.02
2023-05-13T14:09:46.725Z,25.01
2023-05-13T14:14:46.767Z,24.04
2023-05-13T14:19:46.669Z,23.74
2023-05-13T14:24:46.660Z,24.96
2023-05-13T14:29:46.645Z,24.25
2023-05-13T14:34:46.618Z,24.25
2023-05-13T14:39:48.486Z,24.84
2023-05-13T14:44:46.637Z,24.44
2023-05-13T14:49:46.565Z,24.05
2023-05-13T14:54:46.540Z,24.92
2023-05-13T14:59:46.543Z,23.14
2023-05-13T15:04:46.569Z,24.62
2023-05-13T15:09:46.401Z,23.61
2023-05-13T15:14:46.359Z,24.13
2023-05-13T15:19:46.387Z,24.74
2023-05-13T15:24:46.315Z,25.16
2023-05-13T15:29:46.254Z,25.16
2023-05-13T15:34:47.857Z,25.24
2023-05-13T15:39:46.399Z,26.27
2023-05-13T15:44:46.175Z,40.07
2023-05-13T15:49:46.168Z,43.34
2023-05-13T15:54:46.353Z,43.52
2023-05-13T15:59:46.181Z,44.04
2023-05-13T16:04:46.104Z,44.99
2023-05-13T16:09:46.056Z,44.91
2023-05-13T16:14:46.025Z,45.91
2023-05-13T16:19:45.999Z,45.81
2023-05-13T16:24:45.957Z,45.59
2023-05-13T16:29:45.964Z,45.79
2023-05-13T16:34:46.214Z,46.09
2023-05-13T16:39:46.629Z,44.59
2023-05-13T16:44:45.896Z,44.18
2023-05-13T16:49:45.795Z,44.99
2023-05-13T16:54:45.804Z,44.71
2023-05-13T16:59:45.922Z,45.41
2023-05-13T17:04:45.682Z,45.69
2023-05-13T17:09:45.757Z,46.19
2023-05-13T17:14:45.668Z,46.84
2023-05-13T17:19:45.621Z,47.24
2023-05-13T17:24:45.592Z,47.24
2023-05-13T17:29:45.581Z,47.14
2023-05-13T17:34:45.558Z,46.92
2023-05-13T17:39:45.586Z,46.34
2023-05-13T17:44:45.663Z,47.34
2023-05-13T17:49:45.527Z,47.66
2023-05-13T17:54:45.505Z,46.78
2023-05-13T17:59:45.817Z,47.31
2023-05-13T18:04:45.430Z,47.74
2023-05-13T18:09:45.424Z,47.83
2023-05-13T18:14:45.364Z,48.06
2023-05-13T18:19:47.106Z,48.66
2023-05-13T18:24:45.385Z,49.07
2023-05-13T18:29:45.306Z,49.49
2023-05-13T18:34:45.373Z,49.99
2023-05-13T18:39:45.321Z,50.32
2023-05-13T18:44:45.292Z,50.85
2023-05-13T18:49:45.175Z,51.56
2023-05-13T18:54:45.256Z,52.09
2023-05-13T18:59:45.236Z,52.41
2023-05-13T19:04:45.084Z,52.82
2023-05-13T19:09:45.130Z,53.75
2023-05-13T19:14:45.200Z,54.76
2023-05-13T19:19:45.132Z,55.60
2023-05-13T19:24:45.016Z,57.04
2023-05-13T19:29:45.059Z,57.98
2023-05-13T19:34:45.038Z,58.99
2023-05-13T19:39:44.885Z,60.23
2023-05-13T19:44:44.884Z,60.84
2023-05-13T19:49:44.780Z,61.37
2023-05-13T19:54:44.713Z,62.11
2023-05-13T19:59:44.794Z,62.95
2023-05-13T20:04:45.104Z,62.88
2023-05-13T20:09:44.664Z,62.88
2023-05-13T20:14:44.668Z,62.75
2023-05-13T20:19:44.634Z,63.59
2023-05-13T20:24:44.589Z,63.69
2023-05-13T20:29:44.599Z,64.50
2023-05-13T20:34:44.553Z,64.53
2023-05-13T20:39:44.550Z,64.81
2023-05-13T20:44:44.594Z,65.24
2023-05-13T20:49:44.461Z,66.49
2023-05-13T20:54:44.427Z,67.10
2023-05-13T20:59:44.477Z,67.81
2023-05-13T21:04:44.528Z,68.45
2023-05-13T21:09:44.395Z,68.86
2023-05-13T21:14:44.506Z,69.91
2023-05-13T21:19:44.358Z,70.55
2023-05-13T21:24:44.384Z,71.19
2023-05-13T21:29:44.364Z,71.91
2023-05-13T21:34:44.273Z,72.14
2023-05-13T21:39:44.284Z,73.30
2023-05-13T21:44:44.186Z,74.55
2023-05-13T21:49:44.146Z,75.30
2023-05-13T21:54:44.114Z,76.22
2023-05-13T21:59:44.088Z,77.07
2023-05-13T22:04:44.078Z,77.72
2023-05-13T22:09:44.024Z,78.27
2023-05-13T22:14:44.041Z,78.88
2023-05-13T22:19:44.036Z,79.63
2023-05-13T22:24:43.948Z,79.46
2023-05-13T22:29:44.036Z,80.01
2023-05-13T22:34:44.022Z,81.17
2023-05-13T22:39:43.890Z,81.17
2023-05-13T22:44:43.870Z,81.27
2023-05-13T22:49:43.867Z,81.21
2023-05-13T22:54:43.816Z,82.07
2023-05-13T22:59:43.808Z,83.13
2023-05-13T23:04:43.739Z,83.23
2023-05-13T23:09:43.806Z,83.44
2023-05-13T23:14:43.707Z,83.23
2023-05-13T23:19:43.712Z,83.88
2023-05-13T23:24:43.662Z,84.64
2023-05-13T23:29:43.659Z,84.95
2023-05-13T23:34:43.621Z,85.50
2023-05-13T23:39:43.554Z,85.71
2023-05-13T23:44:43.580Z,85.60
2023-05-13T23:49:43.528Z,84.88
2023-05-13T23:54:43.482Z,85.30
2023-05-13T23:59:43.480Z,85.54
